sensor_id;sensor_type;location;lat;lon;timestamp;temperature;humidity
28767;DHT22;15921;52.034;20.650;2022-08-04T00:01:03;19.30;99.90
28767;DHT22;15921;52.034;20.650;2022-08-04T00:03:32;19.30;99.90
28767;DHT22;15921;52.034;20.650;2022-08-04T00:06:03;19.20;99.90
28767;DHT22;15921;52.034;20.650;2022-08-04T00:08:33;19.10;99.90
28767;DHT22;15921;52.034;20.650;2022-08-04T00:11:03;19.10;99.90
28767;DHT22;15921;52.034;20.650;2022-08-04T00:13:31;19.10;99.90
28767;DHT22;15921;52.034;20.650;2022-08-04T00:16:03;19.10;99.90
28767;DHT22;15921;52.034;20.650;2022-08-04T00:18:32;19.00;99.90
28767;DHT22;15921;52.034;20.650;2022-08-04T00:20:59;19.00;99.90
28767;DHT22;15921;52.034;20.650;2022-08-04T00:23:28;19.00;99.90
28767;DHT22;15921;52.034;20.650;2022-08-04T00:25:55;19.00;99.90
28767;DHT22;15921;52.034;20.650;2022-08-04T00:28:20;18.90;99.90
28767;DHT22;15921;52.034;20.650;2022-08-04T00:30:46;18.90;99.90
28767;DHT22;15921;52.034;20.650;2022-08-04T00:33:17;18.90;99.90
28767;DHT22;15921;52.034;20.650;2022-08-04T00:35:43;18.80;99.90
28767;DHT22;15921;52.034;20.650;2022-08-04T00:38:09;18.80;99.90
28767;DHT22;15921;52.034;20.650;2022-08-04T00:40:37;18.80;99.90
28767;DHT22;15921;52.034;20.650;2022-08-04T00:43:12;18.70;99.90
28767;DHT22;15921;52.034;20.650;2022-08-04T00:45:52;18.70;99.90
28767;DHT22;15921;52.034;20.650;2022-08-04T00:51:09;18.60;99.90
28767;DHT22;15921;52.034;20.650;2022-08-04T00:59:12;18.50;99.90
28767;DHT22;15921;52.034;20.650;2022-08-04T01:01:54;18.50;99.90
28767;DHT22;15921;52.034;20.650;2022-08-04T01:04:25;18.40;99.90
28767;DHT22;15921;52.034;20.650;2022-08-04T01:17:20;18.10;99.90
28767;DHT22;15921;52.034;20.650;2022-08-04T01:22:17;18.00;99.90
28767;DHT22;15921;52.034;20.650;2022-08-04T01:24:58;18.00;99.90
28767;DHT22;15921;52.034;20.650;2022-08-04T01:30:12;17.90;99.90
28767;DHT22;15921;52.034;20.650;2022-08-04T01:32:47;17.90;99.90
28767;DHT22;15921;52.034;20.650;2022-08-04T01:37:48;17.80;99.90
28767;DHT22;15921;52.034;20.650;2022-08-04T01:40:17;17.70;99.90
28767;DHT22;15921;52.034;20.650;2022-08-04T01:42:44;17.60;99.90
28767;DHT22;15921;52.034;20.650;2022-08-04T01:45:12;17.60;99.90
28767;DHT22;15921;52.034;20.650;2022-08-04T01:47:42;17.60;99.90
28767;DHT22;15921;52.034;20.650;2022-08-04T01:50:12;17.50;99.90
28767;DHT22;15921;52.034;20.650;2022-08-04T01:52:40;17.50;99.90
28767;DHT22;15921;52.034;20.650;2022-08-04T01:55:07;17.40;99.90
28767;DHT22;15921;52.034;20.650;2022-08-04T01:57:43;17.40;99.90
28767;DHT22;15921;52.034;20.650;2022-08-04T02:00:12;17.40;99.90
28767;DHT22;15921;52.034;20.650;2022-08-04T02:02:38;17.30;99.90
28767;DHT22;15921;52.034;20.650;2022-08-04T02:05:04;17.30;99.90
28767;DHT22;15921;52.034;20.650;2022-08-04T02:10:05;17.20;99.90
28767;DHT22;15921;52.034;20.650;2022-08-04T02:22:57;17.00;99.90
28767;DHT22;15921;52.034;20.650;2022-08-04T02:25:24;17.00;99.90
28767;DHT22;15921;52.034;20.650;2022-08-04T02:30:27;16.90;99.90
28767;DHT22;15921;52.034;20.650;2022-08-04T02:32:53;16.90;99.90
28767;DHT22;15921;52.034;20.650;2022-08-04T02:35:23;16.90;99.90
28767;DHT22;15921;52.034;20.650;2022-08-04T02:37:55;16.90;99.90
28767;DHT22;15921;52.034;20.650;2022-08-04T02:40:25;16.80;99.90
28767;DHT22;15921;52.034;20.650;2022-08-04T02:42:54;16.80;99.90
28767;DHT22;15921;52.034;20.650;2022-08-04T02:45:22;16.80;99.90
28767;DHT22;15921;52.034;20.650;2022-08-04T02:47:49;16.80;99.90
28767;DHT22;15921;52.034;20.650;2022-08-04T02:50:15;16.80;99.90
28767;DHT22;15921;52.034;20.650;2022-08-04T02:52:42;16.70;99.90
28767;DHT22;15921;52.034;20.650;2022-08-04T02:55:09;16.70;99.90
28767;DHT22;15921;52.034;20.650;2022-08-04T02:57:36;16.80;99.90
28767;DHT22;15921;52.034;20.650;2022-08-04T03:05:17;16.70;99.90
28767;DHT22;15921;52.034;20.650;2022-08-04T03:34:08;16.50;99.90
28767;DHT22;15921;52.034;20.650;2022-08-04T03:37:00;16.50;99.90
28767;DHT22;15921;52.034;20.650;2022-08-04T03:39:30;16.50;99.90
28767;DHT22;15921;52.034;20.650;2022-08-04T03:53:15;16.70;99.90
28767;DHT22;15921;52.034;20.650;2022-08-04T04:14:17;17.40;99.90
28767;DHT22;15921;52.034;20.650;2022-08-04T04:17:03;17.50;99.90
28767;DHT22;15921;52.034;20.650;2022-08-04T04:30:00;18.00;99.90
28767;DHT22;15921;52.034;20.650;2022-08-04T04:32:52;18.10;99.90
28767;DHT22;15921;52.034;20.650;2022-08-04T04:35:17;18.20;99.90
28767;DHT22;15921;52.034;20.650;2022-08-04T04:49:58;19.00;99.90
28767;DHT22;15921;52.034;20.650;2022-08-04T04:52:46;19.00;99.90
28767;DHT22;15921;52.034;20.650;2022-08-04T04:55:18;19.20;99.90
28767;DHT22;15921;52.034;20.650;2022-08-04T04:57:45;19.30;99.90
28767;DHT22;15921;52.034;20.650;2022-08-04T05:00:12;19.50;99.90
28767;DHT22;15921;52.034;20.650;2022-08-04T05:13:09;20.20;99.90
28767;DHT22;15921;52.034;20.650;2022-08-04T05:15:39;20.30;99.90
28767;DHT22;15921;52.034;20.650;2022-08-04T05:18:06;20.50;99.90
28767;DHT22;15921;52.034;20.650;2022-08-04T05:20:37;20.60;99.90
28767;DHT22;15921;52.034;20.650;2022-08-04T05:23:07;20.70;99.90
28767;DHT22;15921;52.034;20.650;2022-08-04T05:25:40;20.90;99.90
28767;DHT22;15921;52.034;20.650;2022-08-04T05:28:21;20.90;99.90
28767;DHT22;15921;52.034;20.650;2022-08-04T05:30:50;21.10;99.90
28767;DHT22;15921;52.034;20.650;2022-08-04T05:35:56;21.30;99.90
28767;DHT22;15921;52.034;20.650;2022-08-04T05:38:25;21.40;99.90
28767;DHT22;15921;52.034;20.650;2022-08-04T05:40:51;21.50;99.90
28767;DHT22;15921;52.034;20.650;2022-08-04T05:43:19;21.50;99.90
28767;DHT22;15921;52.034;20.650;2022-08-04T05:45:45;21.60;99.90
28767;DHT22;15921;52.034;20.650;2022-08-04T05:48:12;21.70;99.90
28767;DHT22;15921;52.034;20.650;2022-08-04T05:50:38;21.80;99.90
28767;DHT22;15921;52.034;20.650;2022-08-04T05:53:04;21.90;99.90
28767;DHT22;15921;52.034;20.650;2022-08-04T05:55:30;21.90;99.90
28767;DHT22;15921;52.034;20.650;2022-08-04T05:57:56;22.00;99.90
28767;DHT22;15921;52.034;20.650;2022-08-04T06:00:23;22.10;99.90
28767;DHT22;15921;52.034;20.650;2022-08-04T06:02:49;22.20;99.90
28767;DHT22;15921;52.034;20.650;2022-08-04T06:05:16;22.20;99.90
28767;DHT22;15921;52.034;20.650;2022-08-04T06:07:43;22.30;99.90
28767;DHT22;15921;52.034;20.650;2022-08-04T06:10:08;22.40;99.90
28767;DHT22;15921;52.034;20.650;2022-08-04T06:15:00;22.60;99.90
28767;DHT22;15921;52.034;20.650;2022-08-04T06:17:32;22.70;99.90
28767;DHT22;15921;52.034;20.650;2022-08-04T06:19:59;22.70;99.90
28767;DHT22;15921;52.034;20.650;2022-08-04T06:22:26;22.80;99.90
28767;DHT22;15921;52.034;20.650;2022-08-04T06:24:52;22.90;99.90
28767;DHT22;15921;52.034;20.650;2022-08-04T06:27:19;23.00;99.90
28767;DHT22;15921;52.034;20.650;2022-08-04T06:29:46;23.10;99.90
28767;DHT22;15921;52.034;20.650;2022-08-04T06:32:12;23.20;99.90
28767;DHT22;15921;52.034;20.650;2022-08-04T06:34:50;23.20;99.90
28767;DHT22;15921;52.034;20.650;2022-08-04T06:37:16;23.30;99.90
28767;DHT22;15921;52.034;20.650;2022-08-04T06:39:42;23.40;99.90
28767;DHT22;15921;52.034;20.650;2022-08-04T06:42:08;23.40;99.90
28767;DHT22;15921;52.034;20.650;2022-08-04T06:44:33;23.50;99.90
28767;DHT22;15921;52.034;20.650;2022-08-04T06:47:00;23.70;99.90
28767;DHT22;15921;52.034;20.650;2022-08-04T06:49:26;23.70;99.90
28767;DHT22;15921;52.034;20.650;2022-08-04T06:51:53;23.70;99.90
28767;DHT22;15921;52.034;20.650;2022-08-04T06:54:20;23.80;99.90
28767;DHT22;15921;52.034;20.650;2022-08-04T06:56:45;23.90;99.90
28767;DHT22;15921;52.034;20.650;2022-08-04T06:59:11;24.00;99.90
28767;DHT22;15921;52.034;20.650;2022-08-04T07:01:38;24.00;99.90
28767;DHT22;15921;52.034;20.650;2022-08-04T07:04:04;24.10;99.90
28767;DHT22;15921;52.034;20.650;2022-08-04T07:06:30;24.20;99.90
28767;DHT22;15921;52.034;20.650;2022-08-04T07:08:56;24.20;99.90
28767;DHT22;15921;52.034;20.650;2022-08-04T07:11:21;24.30;99.90
28767;DHT22;15921;52.034;20.650;2022-08-04T07:13:47;24.40;99.90
28767;DHT22;15921;52.034;20.650;2022-08-04T07:16:14;24.50;99.90
28767;DHT22;15921;52.034;20.650;2022-08-04T07:18:40;24.50;99.90
28767;DHT22;15921;52.034;20.650;2022-08-04T07:21:06;24.60;99.90
28767;DHT22;15921;52.034;20.650;2022-08-04T07:23:32;24.70;99.90
28767;DHT22;15921;52.034;20.650;2022-08-04T07:25:57;24.80;99.90
28767;DHT22;15921;52.034;20.650;2022-08-04T07:28:25;24.80;99.90
28767;DHT22;15921;52.034;20.650;2022-08-04T07:30:51;24.90;99.90
28767;DHT22;15921;52.034;20.650;2022-08-04T07:33:17;24.90;99.90
28767;DHT22;15921;52.034;20.650;2022-08-04T07:35:43;25.00;99.90
28767;DHT22;15921;52.034;20.650;2022-08-04T07:38:09;25.00;99.90
28767;DHT22;15921;52.034;20.650;2022-08-04T07:40:36;25.10;99.90
28767;DHT22;15921;52.034;20.650;2022-08-04T07:43:02;25.20;99.90
28767;DHT22;15921;52.034;20.650;2022-08-04T07:45:28;25.30;99.90
28767;DHT22;15921;52.034;20.650;2022-08-04T07:47:54;25.30;99.90
28767;DHT22;15921;52.034;20.650;2022-08-04T07:50:20;25.40;99.90
28767;DHT22;15921;52.034;20.650;2022-08-04T07:52:46;25.50;99.90
28767;DHT22;15921;52.034;20.650;2022-08-04T07:55:12;25.50;99.90
28767;DHT22;15921;52.034;20.650;2022-08-04T07:57:38;25.60;99.60
28767;DHT22;15921;52.034;20.650;2022-08-04T08:00:04;25.60;99.80
28767;DHT22;15921;52.034;20.650;2022-08-04T08:02:30;25.70;99.60
28767;DHT22;15921;52.034;20.650;2022-08-04T08:04:56;25.80;99.40
28767;DHT22;15921;52.034;20.650;2022-08-04T08:07:21;25.90;98.70
28767;DHT22;15921;52.034;20.650;2022-08-04T08:09:47;25.90;98.80
28767;DHT22;15921;52.034;20.650;2022-08-04T08:12:13;26.00;98.90
28767;DHT22;15921;52.034;20.650;2022-08-04T08:14:39;26.00;97.50
28767;DHT22;15921;52.034;20.650;2022-08-04T08:17:05;26.10;96.00
28767;DHT22;15921;52.034;20.650;2022-08-04T08:19:31;26.20;96.50
28767;DHT22;15921;52.034;20.650;2022-08-04T08:21:57;26.20;94.90
28767;DHT22;15921;52.034;20.650;2022-08-04T08:24:23;26.20;95.80
28767;DHT22;15921;52.034;20.650;2022-08-04T08:26:49;26.30;93.90
28767;DHT22;15921;52.034;20.650;2022-08-04T08:29:14;26.40;93.40
28767;DHT22;15921;52.034;20.650;2022-08-04T08:31:40;26.40;94.80
28767;DHT22;15921;52.034;20.650;2022-08-04T08:34:06;26.50;92.10
28767;DHT22;15921;52.034;20.650;2022-08-04T08:36:35;26.50;91.60
28767;DHT22;15921;52.034;20.650;2022-08-04T08:54:40;26.90;90.30
28767;DHT22;15921;52.034;20.650;2022-08-04T09:02:32;27.10;89.50
28767;DHT22;15921;52.034;20.650;2022-08-04T09:10:46;27.30;85.60
28767;DHT22;15921;52.034;20.650;2022-08-04T09:13:23;27.30;83.80
28767;DHT22;15921;52.034;20.650;2022-08-04T09:16:00;27.40;86.70
28767;DHT22;15921;52.034;20.650;2022-08-04T09:18:30;27.50;84.80
28767;DHT22;15921;52.034;20.650;2022-08-04T09:21:01;27.50;84.10
28767;DHT22;15921;52.034;20.650;2022-08-04T09:23:50;27.50;82.80
28767;DHT22;15921;52.034;20.650;2022-08-04T09:26:17;27.50;82.20
28767;DHT22;15921;52.034;20.650;2022-08-04T09:28:52;27.60;83.90
28767;DHT22;15921;52.034;20.650;2022-08-04T09:31:20;27.70;83.70
28767;DHT22;15921;52.034;20.650;2022-08-04T09:33:52;27.70;84.30
28767;DHT22;15921;52.034;20.650;2022-08-04T09:36:26;27.80;81.70
28767;DHT22;15921;52.034;20.650;2022-08-04T09:44:17;27.90;79.00
28767;DHT22;15921;52.034;20.650;2022-08-04T09:46:48;28.00;77.90
28767;DHT22;15921;52.034;20.650;2022-08-04T09:56:40;28.30;80.00
28767;DHT22;15921;52.034;20.650;2022-08-04T09:59:17;28.40;77.30
28767;DHT22;15921;52.034;20.650;2022-08-04T10:01:44;28.40;78.30
28767;DHT22;15921;52.034;20.650;2022-08-04T10:04:12;28.40;74.30
28767;DHT22;15921;52.034;20.650;2022-08-04T10:09:11;28.40;74.40
28767;DHT22;15921;52.034;20.650;2022-08-04T10:16:45;28.60;73.90
28767;DHT22;15921;52.034;20.650;2022-08-04T10:19:27;28.60;72.10
28767;DHT22;15921;52.034;20.650;2022-08-04T10:22:14;28.60;72.70
28767;DHT22;15921;52.034;20.650;2022-08-04T10:29:56;28.80;73.20
28767;DHT22;15921;52.034;20.650;2022-08-04T10:37:23;29.10;70.50
28767;DHT22;15921;52.034;20.650;2022-08-04T10:39:54;29.20;71.40
28767;DHT22;15921;52.034;20.650;2022-08-04T10:42:39;29.10;72.50
28767;DHT22;15921;52.034;20.650;2022-08-04T10:45:18;29.30;74.10
28767;DHT22;15921;52.034;20.650;2022-08-04T10:47:50;29.70;71.10
28767;DHT22;15921;52.034;20.650;2022-08-04T10:50:16;29.90;68.60
28767;DHT22;15921;52.034;20.650;2022-08-04T10:52:45;29.90;68.30
28767;DHT22;15921;52.034;20.650;2022-08-04T10:55:16;29.90;67.20
28767;DHT22;15921;52.034;20.650;2022-08-04T10:57:54;30.00;68.20
28767;DHT22;15921;52.034;20.650;2022-08-04T11:00:24;30.10;70.60
28767;DHT22;15921;52.034;20.650;2022-08-04T11:05:23;30.70;69.20
28767;DHT22;15921;52.034;20.650;2022-08-04T11:07:52;30.80;68.00
28767;DHT22;15921;52.034;20.650;2022-08-04T11:10:19;30.90;68.10
28767;DHT22;15921;52.034;20.650;2022-08-04T11:12:46;31.00;66.50
28767;DHT22;15921;52.034;20.650;2022-08-04T11:15:24;30.80;64.90
28767;DHT22;15921;52.034;20.650;2022-08-04T11:17:54;30.60;66.10
28767;DHT22;15921;52.034;20.650;2022-08-04T11:20:54;30.50;66.50
28767;DHT22;15921;52.034;20.650;2022-08-04T11:23:13;30.60;66.50
28767;DHT22;15921;52.034;20.650;2022-08-04T11:31:10;30.30;65.90
28767;DHT22;15921;52.034;20.650;2022-08-04T11:33:43;30.30;64.60
28767;DHT22;15921;52.034;20.650;2022-08-04T11:38:36;30.70;64.80
28767;DHT22;15921;52.034;20.650;2022-08-04T11:41:08;30.80;64.30
28767;DHT22;15921;52.034;20.650;2022-08-04T11:43:48;30.90;65.40
28767;DHT22;15921;52.034;20.650;2022-08-04T11:46:17;30.90;64.00
28767;DHT22;15921;52.034;20.650;2022-08-04T11:48:51;30.90;64.70
28767;DHT22;15921;52.034;20.650;2022-08-04T11:51:17;31.00;64.40
28767;DHT22;15921;52.034;20.650;2022-08-04T11:53:43;31.10;62.40
28767;DHT22;15921;52.034;20.650;2022-08-04T11:56:11;31.20;63.70
28767;DHT22;15921;52.034;20.650;2022-08-04T11:58:37;31.50;62.20
28767;DHT22;15921;52.034;20.650;2022-08-04T12:05:57;32.00;60.70
28767;DHT22;15921;52.034;20.650;2022-08-04T12:08:32;32.10;61.10
28767;DHT22;15921;52.034;20.650;2022-08-04T12:13:47;32.80;59.60
28767;DHT22;15921;52.034;20.650;2022-08-04T12:16:16;33.30;58.30
28767;DHT22;15921;52.034;20.650;2022-08-04T12:21:38;36.80;52.60
28767;DHT22;15921;52.034;20.650;2022-08-04T12:24:04;38.50;49.70
28767;DHT22;15921;52.034;20.650;2022-08-04T12:26:31;40.10;47.50
28767;DHT22;15921;52.034;20.650;2022-08-04T12:28:59;41.60;45.20
28767;DHT22;15921;52.034;20.650;2022-08-04T12:31:26;42.70;42.30
28767;DHT22;15921;52.034;20.650;2022-08-04T12:33:53;43.20;40.60
28767;DHT22;15921;52.034;20.650;2022-08-04T12:36:22;43.80;41.10
28767;DHT22;15921;52.034;20.650;2022-08-04T12:44:33;46.40;36.50
28767;DHT22;15921;52.034;20.650;2022-08-04T12:46:59;47.00;36.70
28767;DHT22;15921;52.034;20.650;2022-08-04T12:49:26;47.50;36.20
28767;DHT22;15921;52.034;20.650;2022-08-04T12:51:51;47.90;34.60
28767;DHT22;15921;52.034;20.650;2022-08-04T12:54:25;48.00;35.00
28767;DHT22;15921;52.034;20.650;2022-08-04T12:56:51;48.30;33.70
28767;DHT22;15921;52.034;20.650;2022-08-04T12:59:18;48.60;34.00
28767;DHT22;15921;52.034;20.650;2022-08-04T13:01:46;49.10;34.70
28767;DHT22;15921;52.034;20.650;2022-08-04T13:04:14;49.40;32.10
28767;DHT22;15921;52.034;20.650;2022-08-04T13:06:41;49.60;32.20
28767;DHT22;15921;52.034;20.650;2022-08-04T13:09:08;49.80;32.00
28767;DHT22;15921;52.034;20.650;2022-08-04T13:11:36;49.80;30.90
28767;DHT22;15921;52.034;20.650;2022-08-04T13:14:03;49.90;31.50
28767;DHT22;15921;52.034;20.650;2022-08-04T13:16:31;49.80;30.60
28767;DHT22;15921;52.034;20.650;2022-08-04T13:18:57;49.90;30.90
28767;DHT22;15921;52.034;20.650;2022-08-04T13:21:23;50.00;30.60
28767;DHT22;15921;52.034;20.650;2022-08-04T13:23:50;49.60;30.50
28767;DHT22;15921;52.034;20.650;2022-08-04T13:26:16;49.60;30.40
28767;DHT22;15921;52.034;20.650;2022-08-04T13:28:43;49.70;30.50
28767;DHT22;15921;52.034;20.650;2022-08-04T13:31:18;50.00;30.10
28767;DHT22;15921;52.034;20.650;2022-08-04T13:33:51;50.60;30.00
28767;DHT22;15921;52.034;20.650;2022-08-04T13:36:18;50.80;29.40
28767;DHT22;15921;52.034;20.650;2022-08-04T13:38:58;50.80;29.20
28767;DHT22;15921;52.034;20.650;2022-08-04T13:41:26;50.70;30.00
28767;DHT22;15921;52.034;20.650;2022-08-04T13:43:59;51.00;30.80
28767;DHT22;15921;52.034;20.650;2022-08-04T13:46:30;51.10;29.20
28767;DHT22;15921;52.034;20.650;2022-08-04T13:48:56;51.10;29.30
28767;DHT22;15921;52.034;20.650;2022-08-04T13:51:23;51.40;29.70
28767;DHT22;15921;52.034;20.650;2022-08-04T13:53:58;51.80;29.60
28767;DHT22;15921;52.034;20.650;2022-08-04T13:56:25;52.40;29.80
28767;DHT22;15921;52.034;20.650;2022-08-04T13:58:55;52.40;28.20
28767;DHT22;15921;52.034;20.650;2022-08-04T14:01:22;52.30;28.60
28767;DHT22;15921;52.034;20.650;2022-08-04T14:04:03;52.30;28.90
28767;DHT22;15921;52.034;20.650;2022-08-04T14:06:35;52.60;28.60
28767;DHT22;15921;52.034;20.650;2022-08-04T14:14:00;51.90;28.10
28767;DHT22;15921;52.034;20.650;2022-08-04T14:16:36;51.00;27.80
28767;DHT22;15921;52.034;20.650;2022-08-04T14:19:02;49.70;28.40
28767;DHT22;15921;52.034;20.650;2022-08-04T14:21:28;48.80;29.10
28767;DHT22;15921;52.034;20.650;2022-08-04T14:23:59;48.70;29.00
28767;DHT22;15921;52.034;20.650;2022-08-04T14:28:51;49.70;28.80
28767;DHT22;15921;52.034;20.650;2022-08-04T14:31:18;50.20;30.00
28767;DHT22;15921;52.034;20.650;2022-08-04T14:33:45;50.50;29.50
28767;DHT22;15921;52.034;20.650;2022-08-04T14:36:11;49.90;28.70
28767;DHT22;15921;52.034;20.650;2022-08-04T14:41:12;48.40;29.10
28767;DHT22;15921;52.034;20.650;2022-08-04T14:43:45;47.70;29.30
28767;DHT22;15921;52.034;20.650;2022-08-04T14:46:11;47.30;29.60
28767;DHT22;15921;52.034;20.650;2022-08-04T14:48:37;46.70;30.50
28767;DHT22;15921;52.034;20.650;2022-08-04T14:51:04;46.10;30.20
28767;DHT22;15921;52.034;20.650;2022-08-04T14:53:36;45.80;29.50
28767;DHT22;15921;52.034;20.650;2022-08-04T14:56:02;46.10;30.60
28767;DHT22;15921;52.034;20.650;2022-08-04T14:58:28;47.00;29.90
28767;DHT22;15921;52.034;20.650;2022-08-04T15:00:55;48.10;29.40
28767;DHT22;15921;52.034;20.650;2022-08-04T15:03:21;49.20;29.00
28767;DHT22;15921;52.034;20.650;2022-08-04T15:05:47;49.80;28.20
28767;DHT22;15921;52.034;20.650;2022-08-04T15:08:13;50.30;28.20
28767;DHT22;15921;52.034;20.650;2022-08-04T15:10:40;50.70;28.40
28767;DHT22;15921;52.034;20.650;2022-08-04T15:13:06;51.00;27.20
28767;DHT22;15921;52.034;20.650;2022-08-04T15:15:32;51.30;28.00
28767;DHT22;15921;52.034;20.650;2022-08-04T15:17:58;51.00;28.00
28767;DHT22;15921;52.034;20.650;2022-08-04T15:20:23;50.20;27.90
28767;DHT22;15921;52.034;20.650;2022-08-04T15:22:49;49.40;28.60
28767;DHT22;15921;52.034;20.650;2022-08-04T15:25:15;49.60;28.80
28767;DHT22;15921;52.034;20.650;2022-08-04T15:27:41;50.00;28.00
28767;DHT22;15921;52.034;20.650;2022-08-04T15:30:08;50.90;28.60
28767;DHT22;15921;52.034;20.650;2022-08-04T15:32:37;51.50;28.80
28767;DHT22;15921;52.034;20.650;2022-08-04T15:35:04;52.00;27.90
28767;DHT22;15921;52.034;20.650;2022-08-04T15:37:38;52.50;27.50
28767;DHT22;15921;52.034;20.650;2022-08-04T15:40:14;52.50;26.30
28767;DHT22;15921;52.034;20.650;2022-08-04T15:42:59;52.50;26.70
28767;DHT22;15921;52.034;20.650;2022-08-04T15:45:26;52.50;26.40
28767;DHT22;15921;52.034;20.650;2022-08-04T15:50:25;52.10;26.30
28767;DHT22;15921;52.034;20.650;2022-08-04T15:56:02;50.90;27.90
28767;DHT22;15921;52.034;20.650;2022-08-04T15:58:13;50.20;27.80
28767;DHT22;15921;52.034;20.650;2022-08-04T16:11:45;52.00;27.10
28767;DHT22;15921;52.034;20.650;2022-08-04T16:14:07;52.10;26.90
28767;DHT22;15921;52.034;20.650;2022-08-04T16:19:04;52.00;26.80
28767;DHT22;15921;52.034;20.650;2022-08-04T16:21:31;52.00;27.20
28767;DHT22;15921;52.034;20.650;2022-08-04T16:29:02;51.10;28.60
28767;DHT22;15921;52.034;20.650;2022-08-04T16:31:28;50.20;28.70
28767;DHT22;15921;52.034;20.650;2022-08-04T16:33:58;48.90;29.30
28767;DHT22;15921;52.034;20.650;2022-08-04T16:39:11;48.20;30.10
28767;DHT22;15921;52.034;20.650;2022-08-04T16:41:43;48.70;30.80
28767;DHT22;15921;52.034;20.650;2022-08-04T16:44:29;49.10;30.00
28767;DHT22;15921;52.034;20.650;2022-08-04T16:46:59;47.90;30.50
28767;DHT22;15921;52.034;20.650;2022-08-04T16:49:27;45.50;31.70
28767;DHT22;15921;52.034;20.650;2022-08-04T16:51:53;43.10;34.70
28767;DHT22;15921;52.034;20.650;2022-08-04T16:54:22;41.00;37.90
28767;DHT22;15921;52.034;20.650;2022-08-04T16:56:48;39.30;39.00
28767;DHT22;15921;52.034;20.650;2022-08-04T16:59:14;38.20;41.10
28767;DHT22;15921;52.034;20.650;2022-08-04T17:01:46;37.10;42.60
28767;DHT22;15921;52.034;20.650;2022-08-04T17:04:12;36.10;44.10
28767;DHT22;15921;52.034;20.650;2022-08-04T17:06:38;35.40;47.50
28767;DHT22;15921;52.034;20.650;2022-08-04T17:09:09;34.70;49.00
28767;DHT22;15921;52.034;20.650;2022-08-04T17:11:35;34.30;50.10
28767;DHT22;15921;52.034;20.650;2022-08-04T17:14:00;34.20;50.20
28767;DHT22;15921;52.034;20.650;2022-08-04T17:16:27;33.90;50.90
28767;DHT22;15921;52.034;20.650;2022-08-04T17:18:53;33.90;51.40
28767;DHT22;15921;52.034;20.650;2022-08-04T17:21:29;34.90;50.40
28767;DHT22;15921;52.034;20.650;2022-08-04T17:23:57;36.10;48.70
28767;DHT22;15921;52.034;20.650;2022-08-04T17:26:27;35.80;48.60
28767;DHT22;15921;52.034;20.650;2022-08-04T17:28:54;34.80;50.00
28767;DHT22;15921;52.034;20.650;2022-08-04T17:31:21;33.90;51.90
28767;DHT22;15921;52.034;20.650;2022-08-04T17:33:50;33.50;53.00
28767;DHT22;15921;52.034;20.650;2022-08-04T17:36:16;33.20;53.40
28767;DHT22;15921;52.034;20.650;2022-08-04T17:38:46;32.50;55.00
28767;DHT22;15921;52.034;20.650;2022-08-04T17:41:13;32.00;56.10
28767;DHT22;15921;52.034;20.650;2022-08-04T17:51:31;29.80;60.50
28767;DHT22;15921;52.034;20.650;2022-08-04T17:53:57;29.30;62.10
28767;DHT22;15921;52.034;20.650;2022-08-04T17:56:33;28.90;64.40
28767;DHT22;15921;52.034;20.650;2022-08-04T17:59:09;28.60;65.00
28767;DHT22;15921;52.034;20.650;2022-08-04T18:07:43;27.60;68.20
28767;DHT22;15921;52.034;20.650;2022-08-04T18:09:50;27.20;69.70
28767;DHT22;15921;52.034;20.650;2022-08-04T18:12:23;26.90;70.50
28767;DHT22;15921;52.034;20.650;2022-08-04T18:14:49;26.70;70.80
28767;DHT22;15921;52.034;20.650;2022-08-04T18:20:00;26.30;72.80
28767;DHT22;15921;52.034;20.650;2022-08-04T18:22:26;26.00;74.50
28767;DHT22;15921;52.034;20.650;2022-08-04T18:24:51;25.80;75.00
28767;DHT22;15921;52.034;20.650;2022-08-04T18:27:18;25.60;76.20
28767;DHT22;15921;52.034;20.650;2022-08-04T18:29:44;25.50;76.50
28767;DHT22;15921;52.034;20.650;2022-08-04T18:32:09;25.40;77.00
28767;DHT22;15921;52.034;20.650;2022-08-04T18:34:36;25.20;77.60
28767;DHT22;15921;52.034;20.650;2022-08-04T18:37:02;25.10;78.10
28767;DHT22;15921;52.034;20.650;2022-08-04T18:39:27;24.90;78.90
28767;DHT22;15921;52.034;20.650;2022-08-04T18:41:54;24.70;79.90
28767;DHT22;15921;52.034;20.650;2022-08-04T18:44:20;24.60;80.80
28767;DHT22;15921;52.034;20.650;2022-08-04T18:46:46;24.50;81.60
28767;DHT22;15921;52.034;20.650;2022-08-04T18:49:11;24.30;82.30
28767;DHT22;15921;52.034;20.650;2022-08-04T18:51:37;24.10;82.80
28767;DHT22;15921;52.034;20.650;2022-08-04T18:54:03;23.90;83.90
28767;DHT22;15921;52.034;20.650;2022-08-04T18:56:29;23.80;84.80
28767;DHT22;15921;52.034;20.650;2022-08-04T18:58:55;23.60;85.80
28767;DHT22;15921;52.034;20.650;2022-08-04T19:01:21;23.60;86.70
28767;DHT22;15921;52.034;20.650;2022-08-04T19:03:46;23.40;88.10
28767;DHT22;15921;52.034;20.650;2022-08-04T19:06:12;23.30;89.20
28767;DHT22;15921;52.034;20.650;2022-08-04T19:08:38;23.30;90.20
28767;DHT22;15921;52.034;20.650;2022-08-04T19:11:04;23.20;90.70
28767;DHT22;15921;52.034;20.650;2022-08-04T19:13:30;23.00;91.60
28767;DHT22;15921;52.034;20.650;2022-08-04T19:15:56;22.90;92.70
28767;DHT22;15921;52.034;20.650;2022-08-04T19:18:22;22.90;93.30
28767;DHT22;15921;52.034;20.650;2022-08-04T19:20:48;22.80;93.80
28767;DHT22;15921;52.034;20.650;2022-08-04T19:23:14;22.60;94.40
28767;DHT22;15921;52.034;20.650;2022-08-04T19:25:40;22.60;95.40
28767;DHT22;15921;52.034;20.650;2022-08-04T19:28:05;22.50;96.20
28767;DHT22;15921;52.034;20.650;2022-08-04T19:30:31;22.40;96.90
28767;DHT22;15921;52.034;20.650;2022-08-04T19:32:57;22.30;97.50
28767;DHT22;15921;52.034;20.650;2022-08-04T19:35:22;22.30;98.10
28767;DHT22;15921;52.034;20.650;2022-08-04T19:37:48;22.20;98.70
28767;DHT22;15921;52.034;20.650;2022-08-04T19:40:13;22.10;99.60
28767;DHT22;15921;52.034;20.650;2022-08-04T19:42:39;22.00;99.90
28767;DHT22;15921;52.034;20.650;2022-08-04T19:45:07;21.90;99.90
28767;DHT22;15921;52.034;20.650;2022-08-04T19:47:33;21.80;99.90
28767;DHT22;15921;52.034;20.650;2022-08-04T19:49:58;21.70;99.90
28767;DHT22;15921;52.034;20.650;2022-08-04T19:52:24;21.50;99.90
28767;DHT22;15921;52.034;20.650;2022-08-04T19:54:49;21.40;99.90
28767;DHT22;15921;52.034;20.650;2022-08-04T19:57:15;21.50;99.90
28767;DHT22;15921;52.034;20.650;2022-08-04T19:59:40;21.40;99.90
28767;DHT22;15921;52.034;20.650;2022-08-04T20:02:06;21.30;99.90